METAR Data
IDs: Format: Raw Decoded Include TAF

Data at: 1309 UTC 26 Feb 2021

EGLC 261250Z 28005KT 250V320 CAVOK 11/M01 Q1038